createdAt,value
2023-03-23T15:58:22.627Z,51.70
2023-03-23T16:00:53.871Z,51.80
2023-03-23T16:03:28.471Z,51.80
2023-03-23T16:06:00.032Z,51.80
2023-03-23T16:08:29.566Z,51.90
2023-03-23T16:11:00.355Z,51.80
2023-03-23T16:13:29.540Z,51.80
2023-03-23T16:15:59.302Z,52.00
2023-03-23T16:18:28.450Z,51.90
2023-03-23T16:20:57.725Z,51.90
2023-03-23T16:23:27.217Z,51.70
2023-03-23T16:25:56.364Z,51.70
2023-03-23T16:28:26.920Z,51.60
2023-03-23T16:30:56.492Z,51.50
2023-03-23T16:33:25.739Z,51.40
2023-03-23T16:35:55.068Z,51.30
2023-03-23T16:38:24.394Z,51.30
2023-03-23T16:40:53.824Z,51.20
2023-03-23T16:43:23.367Z,51.10
2023-03-23T16:45:57.766Z,51.10
2023-03-23T16:48:27.273Z,51.20
2023-03-23T16:50:56.770Z,51.10
2023-03-23T16:53:26.377Z,51.20
2023-03-23T16:55:57.966Z,51.20
2023-03-23T16:58:27.376Z,51.30
2023-03-23T17:00:58.016Z,51.30
2023-03-23T17:03:27.437Z,51.40
2023-03-23T17:05:56.768Z,51.40
2023-03-23T17:08:25.926Z,51.40
2023-03-23T17:10:55.424Z,51.50
2023-03-23T17:13:25.599Z,51.50
2023-03-23T17:15:57.448Z,51.40
2023-03-23T17:18:29.281Z,51.50
2023-03-23T17:20:58.565Z,51.60
2023-03-23T17:23:27.761Z,51.60
2023-03-23T17:25:57.015Z,51.60
2023-03-23T17:28:26.172Z,51.60
2023-03-23T17:30:55.739Z,51.70
2023-03-23T17:33:24.993Z,51.70
2023-03-23T17:35:55.690Z,51.70
2023-03-23T17:38:24.910Z,51.80
2023-03-23T17:40:58.685Z,51.80
2023-03-23T17:43:27.829Z,51.80
2023-03-23T17:45:57.088Z,51.80
2023-03-23T17:48:27.040Z,51.80
2023-03-23T17:50:59.211Z,51.80
2023-03-23T17:53:28.938Z,51.80
2023-03-23T17:55:59.242Z,51.80
2023-03-23T17:58:39.098Z,51.80
2023-03-23T18:01:08.872Z,51.80
2023-03-23T18:03:38.837Z,51.90
2023-03-23T18:06:11.236Z,51.90
2023-03-23T18:08:40.915Z,51.90
2023-03-23T18:11:10.378Z,52.20
2023-03-23T18:13:39.975Z,52.40
2023-03-23T18:16:09.959Z,52.50
2023-03-23T18:18:39.427Z,52.30
2023-03-23T18:21:11.548Z,52.50
2023-03-23T18:23:49.649Z,52.80
2023-03-23T18:26:28.696Z,52.50
2023-03-23T18:28:57.866Z,52.30
2023-03-23T18:31:27.423Z,52.40
2023-03-23T18:33:56.776Z,52.30
2023-03-23T18:36:29.586Z,52.50
2023-03-23T18:38:59.762Z,52.40
2023-03-23T18:41:29.050Z,52.30
2023-03-23T18:43:58.289Z,52.40
2023-03-23T18:46:27.815Z,52.60
2023-03-23T18:48:57.263Z,52.50
2023-03-23T18:51:28.081Z,52.80
2023-03-23T18:53:57.291Z,52.70
2023-03-23T18:56:26.567Z,53.00
2023-03-23T18:58:55.866Z,53.00
2023-03-23T19:01:25.337Z,52.70
2023-03-23T19:03:54.682Z,52.70
2023-03-23T19:06:28.078Z,52.60
2023-03-23T19:08:58.947Z,52.50
2023-03-23T19:11:28.540Z,52.40
2023-03-23T19:14:03.061Z,52.30
2023-03-23T19:16:34.278Z,52.20
2023-03-23T19:19:03.950Z,52.10
2023-03-23T19:21:34.137Z,52.00
2023-03-23T19:24:05.391Z,51.90
2023-03-23T19:26:37.884Z,51.90
2023-03-23T19:31:41.611Z,51.70
2023-03-23T19:34:12.474Z,51.70
2023-03-23T19:36:41.771Z,51.60
2023-03-23T19:39:12.790Z,51.60
2023-03-23T19:41:42.134Z,51.50
2023-03-23T19:44:12.144Z,51.60
2023-03-23T19:46:41.422Z,51.60
2023-03-23T19:49:10.811Z,51.60
2023-03-23T19:51:40.138Z,51.60
2023-03-23T19:54:09.789Z,51.60
2023-03-23T19:56:40.676Z,51.70
2023-03-23T19:59:11.114Z,51.60
2023-03-23T20:01:41.068Z,51.70
2023-03-23T20:04:11.299Z,51.60
2023-03-23T20:06:41.209Z,51.60
2023-03-23T20:09:12.415Z,51.70
2023-03-23T20:11:43.058Z,51.70
2023-03-23T20:14:12.360Z,51.80
2023-03-23T20:16:41.534Z,51.80
2023-03-23T20:19:10.747Z,51.70
2023-03-23T20:21:39.984Z,51.70
2023-03-23T20:24:09.164Z,51.40
2023-03-23T20:26:40.550Z,51.50
2023-03-23T20:29:11.736Z,51.60
2023-03-23T20:31:42.845Z,51.70
2023-03-23T20:34:14.444Z,51.70
2023-03-23T20:36:45.943Z,51.80
2023-03-23T20:39:19.165Z,51.80
2023-03-23T20:41:50.612Z,51.90
2023-03-23T20:44:23.406Z,51.90
2023-03-23T20:46:53.813Z,51.90
2023-03-23T20:49:23.182Z,51.90
2023-03-23T20:51:53.829Z,51.90
2023-03-23T20:54:24.717Z,52.00
2023-03-23T20:56:56.231Z,52.00
2023-03-23T20:59:27.481Z,52.60
2023-03-23T21:01:56.905Z,51.90
2023-03-23T21:04:28.290Z,51.90
2023-03-23T21:06:57.595Z,52.00
2023-03-23T21:09:26.812Z,52.00
2023-03-23T21:11:57.316Z,52.10
2023-03-23T21:14:28.318Z,52.10
2023-03-23T21:17:01.484Z,52.10
2023-03-23T21:19:31.691Z,52.00
2023-03-23T21:22:00.934Z,52.00
2023-03-23T21:24:32.447Z,52.00
2023-03-23T21:27:03.110Z,52.00
2023-03-23T21:29:34.210Z,52.00
2023-03-23T21:32:08.117Z,52.10
2023-03-23T21:34:38.873Z,52.10
2023-03-23T21:37:08.345Z,52.10
2023-03-23T21:39:37.516Z,52.10
2023-03-23T21:42:07.157Z,52.10
2023-03-23T21:44:39.181Z,52.20
2023-03-23T21:47:08.427Z,52.20
2023-03-23T21:49:40.780Z,52.20
2023-03-23T21:52:10.720Z,52.20
2023-03-23T21:54:41.347Z,52.20
2023-03-23T21:57:10.579Z,52.20
2023-03-23T21:59:41.344Z,52.20
2023-03-23T22:02:13.893Z,52.20
2023-03-23T22:04:43.487Z,52.20
2023-03-23T22:07:13.853Z,52.20
2023-03-23T22:09:45.017Z,52.20
2023-03-23T22:12:15.756Z,52.20
2023-03-23T22:14:46.689Z,52.20
2023-03-23T22:17:15.886Z,52.90
2023-03-23T22:19:45.245Z,52.50
2023-03-23T22:22:14.573Z,52.50
2023-03-23T22:24:43.812Z,52.50
2023-03-23T22:27:13.065Z,52.60
2023-03-23T22:29:42.316Z,52.50
2023-03-23T22:32:13.221Z,52.30
2023-03-23T22:34:42.962Z,52.30
2023-03-23T22:37:12.498Z,52.30
2023-03-23T22:39:41.863Z,52.30
2023-03-23T22:42:12.460Z,52.30
2023-03-23T22:44:42.731Z,52.40
2023-03-23T22:47:13.997Z,52.20
2023-03-23T22:49:43.434Z,52.10
2023-03-23T22:52:12.684Z,52.70
2023-03-23T22:54:41.911Z,52.10
2023-03-23T22:57:11.269Z,52.10
2023-03-23T22:59:41.056Z,52.10
2023-03-23T23:02:10.696Z,52.10
2023-03-23T23:04:41.373Z,52.10
2023-03-23T23:07:14.380Z,52.10
2023-03-23T23:09:44.822Z,52.10
2023-03-23T23:12:15.350Z,52.10
2023-03-23T23:14:45.997Z,52.10
2023-03-23T23:17:15.301Z,52.10
2023-03-23T23:19:45.921Z,52.10
2023-03-23T23:22:19.242Z,52.00
2023-03-23T23:24:49.073Z,52.10
2023-03-23T23:27:18.298Z,52.10
2023-03-23T23:29:47.546Z,52.70
2023-03-23T23:32:17.116Z,52.10
2023-03-23T23:34:48.672Z,52.10
2023-03-23T23:37:17.964Z,52.10
2023-03-23T23:39:47.208Z,52.10
2023-03-23T23:42:16.598Z,52.10
2023-03-23T23:44:46.732Z,52.10
2023-03-23T23:47:16.178Z,52.10
2023-03-23T23:49:46.881Z,52.10
2023-03-23T23:52:16.624Z,52.10
2023-03-23T23:54:47.478Z,52.00
2023-03-23T23:57:17.509Z,52.10
2023-03-23T23:59:46.725Z,52.00
